Rhl Flensburg — D5LA3 — position and weather

sailwx.info

Track history (hours):
 
Tides and Currents Weather Stations Pressure Air Temp Water Temp Dewpoint Dewpoint Depression Visibility Wind Speed Wind Dir Waves Ship Positions

Rhl Flensburg

Last reported at 2018-Feb-18 22:21 UTC. Time now 2018-Feb-19 05:58 UTC.
Position N 52°08' E 003°39'.

Length 117 m; draft 5.5 m.

Type: Ship. MMSI: 636092701.

Date/timePositionNaut miles runAvg speedWind from/ knotsBaromVisibWave heightAir tempDewpointWater temp
2018-Feb-18 22:21N 52°08' E 003°39'0 0.0
2018-Feb-18 21:48N 52°08' E 003°39'0 0.0
2018-Feb-18 21:27N 52°08' E 003°39'0 0.1
2018-Feb-18 21:00N 52°08' E 003°39'5 8.9
2018-Feb-18 20:29N 52°06' E 003°46'713.8
2018-Feb-18 20:00N 52°02' E 003°55'612.6
2018-Feb-18 19:30N 51°59' E 004°04'510.0
2018-Feb-18 19:00N 51°56' E 004°11'0 0.6
2018-Feb-18 18:27N 51°56' E 004°11'0 0.0
2018-Feb-18 18:00N 51°56' E 004°11'0 0.0
2018-Feb-18 17:30N 51°56' E 004°11'0 0.0
2018-Feb-18 16:51N 51°56' E 004°11'0 0.0
2018-Feb-18 16:27N 51°56' E 004°11'0 0.0
2018-Feb-18 15:51N 51°56' E 004°11'0 0.0
2018-Feb-18 15:30N 51°56' E 004°11'0 0.0
2018-Feb-18 14:57N 51°56' E 004°11'0 0.0
2018-Feb-18 13:57N 51°56' E 004°11'0 0.0
2018-Feb-18 13:24N 51°56' E 004°11'0 0.0
2018-Feb-18 12:57N 51°56' E 004°11'0 0.0
2018-Feb-18 12:24N 51°56' E 004°11'0 0.0
2018-Feb-18 11:54N 51°56' E 004°11'0 0.0
2018-Feb-18 11:24N 51°56' E 004°11'0 0.0
2018-Feb-18 10:51N 51°56' E 004°11'0 0.0
2018-Feb-18 09:54N 51°56' E 004°11'0 0.0
2018-Feb-18 09:15N 51°56' E 004°11'0 0.0
2018-Feb-18 08:15N 51°56' E 004°11'0 0.0
2018-Feb-18 07:51N 51°56' E 004°11'0 0.0
2018-Feb-18 07:21N 51°56' E 004°11'0 0.0
2018-Feb-18 06:51N 51°56' E 004°11'0 0.0
2018-Feb-18 05:39N 51°56' E 004°11'0 0.0
2018-Feb-18 05:27N 51°56' E 004°11'0 0.0
2018-Feb-18 04:39N 51°56' E 004°11'0 0.0
2018-Feb-18 04:25N 51°56' E 004°11'0 0.9
2018-Feb-18 03:58N 51°56' E 004°11'4 8.6
2018-Feb-18 03:30N 51°59' E 004°05'5 9.9
2018-Feb-18 02:59N 51°56' E 004°12'510.5
2018-Feb-18 02:30N 51°53' E 004°18'1 0.4
2018-Feb-18 01:05N 51°53' E 004°18'0 0.0
2018-Feb-18 00:59N 51°53' E 004°18'0 0.0
2018-Feb-17 23:35N 51°53' E 004°18'0 0.0
2018-Feb-17 23:11N 51°53' E 004°18'0 0.0
2018-Feb-17 22:56N 51°53' E 004°18'0 0.0
2018-Feb-17 22:26N 51°53' E 004°18'0 0.0
2018-Feb-17 20:35N 51°53' E 004°18'0 0.0
2018-Feb-17 20:26N 51°53' E 004°18'0 0.0
2018-Feb-17 19:14N 51°53' E 004°18'0 0.0
2018-Feb-17 15:59N 51°53' E 004°18'0 0.0
2018-Feb-17 15:29N 51°53' E 004°18'0 0.0
2018-Feb-17 14:50N 51°53' E 004°18'0 0.0
2018-Feb-17 14:20N 51°53' E 004°18'0 0.0
2018-Feb-17 13:59N 51°53' E 004°18'0 0.0
2018-Feb-17 13:23N 51°53' E 004°18'0 0.0
2018-Feb-17 08:50N 51°53' E 004°18'0 0.0
2018-Feb-17 05:41N 51°53' E 004°18'0 0.0
2018-Feb-17 05:11N 51°53' E 004°18'0 0.0
2018-Feb-17 04:59N 51°53' E 004°18'0 0.0
2018-Feb-17 04:29N 51°53' E 004°18'0 0.0
2018-Feb-17 02:59N 51°53' E 004°18'0 0.0
2018-Feb-17 01:50N 51°53' E 004°18'0 0.0
2018-Feb-17 01:23N 51°53' E 004°18'0 0.0
2018-Feb-16 22:05N 51°53' E 004°18'0 0.0
2018-Feb-16 21:44N 51°53' E 004°18'0 0.0
2018-Feb-16 20:08N 51°53' E 004°18'0 0.0
2018-Feb-16 19:53N 51°53' E 004°18'0 0.0
2018-Feb-16 18:11N 51°53' E 004°18'0 0.0
2018-Feb-16 18:00N 51°53' E 004°18'0 0.7
2018-Feb-16 17:30N 51°53' E 004°18'2 4.6
2018-Feb-16 17:00N 51°54' E 004°16'510.1
2018-Feb-16 16:30N 51°58' E 004°09'611.9
2018-Feb-16 16:00N 52°00' E 004°00'713.8
2018-Feb-16 15:30N 51°59' E 003°49'25 9.1
2018-Feb-16 12:47N 51°53' E 003°11'3 9.9
2018-Feb-16 12:29N 51°52' E 003°06'5 9.6
2018-Feb-16 11:59N 51°51' E 002°58'510.1
2018-Feb-16 11:29N 51°50' E 002°50'20 9.7
2018-Feb-16 09:29N 51°37' E 002°26'511.0
2018-Feb-16 09:00N 51°33' E 002°21'510.7
2018-Feb-16 08:30N 51°29' E 002°16'610.8
2018-Feb-16 08:00N 51°24' E 002°12'510.8
2018-Feb-16 07:30N 51°19' E 002°08'611.1
2018-Feb-16 07:00N 51°14' E 002°04'511.0
2018-Feb-16 06:30N 51°12' E 001°57'611.3
2018-Feb-16 06:00N 51°09' E 001°49'611.4
2018-Feb-16 05:30N 51°05' E 001°42'611.8
2018-Feb-16 05:00N 51°01' E 001°36'612.5
2018-Feb-16 04:30N 50°56' E 001°29'11112.8
2018-Feb-15 19:49N 50°06' W 001°07'715.9
2018-Feb-15 19:24N 50°05' W 001°17'615.9
2018-Feb-15 19:00N 50°04' W 001°26'815.5
2018-Feb-15 18:30N 50°02' W 001°38'714.9
2018-Feb-15 18:00N 50°00' W 001°49'714.2
2018-Feb-15 17:30N 49°59' W 002°00'713.2
2018-Feb-15 17:00N 49°57' W 002°10'612.5
2018-Feb-15 16:30N 49°56' W 002°20'612.0
2018-Feb-15 16:00N 49°54' W 002°28'611.6
2018-Feb-15 15:30N 49°53' W 002°37'611.4
2018-Feb-15 15:00N 49°51' W 002°46'611.0
2018-Feb-15 14:29N 49°49' W 002°54'510.9
2018-Feb-15 14:00N 49°46' W 003°01'510.8
2018-Feb-15 13:30N 49°44' W 003°08'17012.2
2018-Feb-14 23:31N 48°04' W 006°38'  
2018-Feb-11 12:52N 39°31' W 027°49'513.0
2018-Feb-11 12:29N 39°28' W 027°54'1012.9
2018-Feb-11 11:44N 39°23' W 028°05'312.5
2018-Feb-11 11:27N 39°21' W 028°08'612.6
2018-Feb-11 11:00N 39°18' W 028°14'612.6
2018-Feb-11 10:30N 39°14' W 028°21'613.0
2018-Feb-11 10:00N 39°11' W 028°28'613.0
2018-Feb-11 09:30N 39°07' W 028°35'612.6
2018-Feb-11 09:01N 39°03' W 028°42'612.3
2018-Feb-11 08:30N 38°60' W 028°48'612.9
2018-Feb-11 08:00N 38°56' W 028°55'612.9
2018-Feb-11 07:30N 38°52' W 029°02'713.2
2018-Feb-11 07:00N 38°49' W 029°09'713.1
2018-Feb-11 06:30N 38°45' W 029°16'613.0
2018-Feb-11 06:01N 38°42' W 029°23'713.3
2018-Feb-11 05:31N 38°38' W 029°30'713.1
2018-Feb-11 05:00N 38°34' W 029°36'713.1
2018-Feb-11 04:30N 38°30' W 029°43'713.2
2018-Feb-11 04:00N 38°26' W 029°50'713.3
2018-Feb-11 03:30N 38°22' W 029°57'713.1
2018-Feb-11 03:01N 38°18' W 030°03'713.1
2018-Feb-11 02:30N 38°14' W 030°10'713.0
2018-Feb-11 02:00N 38°11' W 030°17'612.9
2018-Feb-11 01:30N 38°07' W 030°23'713.0
2018-Feb-11 01:00N 38°03' W 030°30'  
Track history (hours):
 
Tides and Currents Weather Stations Pressure Air Temp Water Temp Dewpoint Dewpoint Depression Visibility Wind Speed Wind Dir Waves Ship Positions

Rhl Flensburg

Last reported at 2018-Feb-18 22:21 UTC. Time now 2018-Feb-19 05:58 UTC.
Position N 52°08' E 003°39'.

Length 117 m; draft 5.5 m.

Type: Ship. MMSI: 636092701.

Date/timePositionNaut miles runAvg speedWind from/ knotsBaromVisibWave heightAir tempDewpointWater temp
2018-Feb-18 22:21N 52°08' E 003°39'0 0.0
2018-Feb-18 21:48N 52°08' E 003°39'0 0.0
2018-Feb-18 21:27N 52°08' E 003°39'0 0.1
2018-Feb-18 21:00N 52°08' E 003°39'5 8.9
2018-Feb-18 20:29N 52°06' E 003°46'713.8
2018-Feb-18 20:00N 52°02' E 003°55'612.6
2018-Feb-18 19:30N 51°59' E 004°04'510.0
2018-Feb-18 19:00N 51°56' E 004°11'0 0.6
2018-Feb-18 18:27N 51°56' E 004°11'0 0.0
2018-Feb-18 18:00N 51°56' E 004°11'0 0.0
2018-Feb-18 17:30N 51°56' E 004°11'0 0.0
2018-Feb-18 16:51N 51°56' E 004°11'0 0.0
2018-Feb-18 16:27N 51°56' E 004°11'0 0.0
2018-Feb-18 15:51N 51°56' E 004°11'0 0.0
2018-Feb-18 15:30N 51°56' E 004°11'0 0.0
2018-Feb-18 14:57N 51°56' E 004°11'0 0.0
2018-Feb-18 13:57N 51°56' E 004°11'0 0.0
2018-Feb-18 13:24N 51°56' E 004°11'0 0.0
2018-Feb-18 12:57N 51°56' E 004°11'0 0.0
2018-Feb-18 12:24N 51°56' E 004°11'0 0.0
2018-Feb-18 11:54N 51°56' E 004°11'0 0.0
2018-Feb-18 11:24N 51°56' E 004°11'0 0.0
2018-Feb-18 10:51N 51°56' E 004°11'0 0.0
2018-Feb-18 09:54N 51°56' E 004°11'0 0.0
2018-Feb-18 09:15N 51°56' E 004°11'0 0.0
2018-Feb-18 08:15N 51°56' E 004°11'0 0.0
2018-Feb-18 07:51N 51°56' E 004°11'0 0.0
2018-Feb-18 07:21N 51°56' E 004°11'0 0.0
2018-Feb-18 06:51N 51°56' E 004°11'0 0.0
2018-Feb-18 05:39N 51°56' E 004°11'0 0.0
2018-Feb-18 05:27N 51°56' E 004°11'0 0.0
2018-Feb-18 04:39N 51°56' E 004°11'0 0.0
2018-Feb-18 04:25N 51°56' E 004°11'0 0.9
2018-Feb-18 03:58N 51°56' E 004°11'4 8.6
2018-Feb-18 03:30N 51°59' E 004°05'5 9.9
2018-Feb-18 02:59N 51°56' E 004°12'510.5
2018-Feb-18 02:30N 51°53' E 004°18'1 0.4
2018-Feb-18 01:05N 51°53' E 004°18'0 0.0
2018-Feb-18 00:59N 51°53' E 004°18'0 0.0
2018-Feb-17 23:35N 51°53' E 004°18'0 0.0
2018-Feb-17 23:11N 51°53' E 004°18'0 0.0
2018-Feb-17 22:56N 51°53' E 004°18'0 0.0
2018-Feb-17 22:26N 51°53' E 004°18'0 0.0
2018-Feb-17 20:35N 51°53' E 004°18'0 0.0
2018-Feb-17 20:26N 51°53' E 004°18'0 0.0
2018-Feb-17 19:14N 51°53' E 004°18'0 0.0
2018-Feb-17 15:59N 51°53' E 004°18'0 0.0
2018-Feb-17 15:29N 51°53' E 004°18'0 0.0
2018-Feb-17 14:50N 51°53' E 004°18'0 0.0
2018-Feb-17 14:20N 51°53' E 004°18'0 0.0
2018-Feb-17 13:59N 51°53' E 004°18'0 0.0
2018-Feb-17 13:23N 51°53' E 004°18'0 0.0
2018-Feb-17 08:50N 51°53' E 004°18'0 0.0
2018-Feb-17 05:41N 51°53' E 004°18'0 0.0
2018-Feb-17 05:11N 51°53' E 004°18'0 0.0
2018-Feb-17 04:59N 51°53' E 004°18'0 0.0
2018-Feb-17 04:29N 51°53' E 004°18'0 0.0
2018-Feb-17 02:59N 51°53' E 004°18'0 0.0
2018-Feb-17 01:50N 51°53' E 004°18'0 0.0
2018-Feb-17 01:23N 51°53' E 004°18'0 0.0
2018-Feb-16 22:05N 51°53' E 004°18'0 0.0
2018-Feb-16 21:44N 51°53' E 004°18'0 0.0
2018-Feb-16 20:08N 51°53' E 004°18'0 0.0
2018-Feb-16 19:53N 51°53' E 004°18'0 0.0
2018-Feb-16 18:11N 51°53' E 004°18'0 0.0
2018-Feb-16 18:00N 51°53' E 004°18'0 0.7
2018-Feb-16 17:30N 51°53' E 004°18'2 4.6
2018-Feb-16 17:00N 51°54' E 004°16'510.1
2018-Feb-16 16:30N 51°58' E 004°09'611.9
2018-Feb-16 16:00N 52°00' E 004°00'713.8
2018-Feb-16 15:30N 51°59' E 003°49'25 9.1
2018-Feb-16 12:47N 51°53' E 003°11'3 9.9
2018-Feb-16 12:29N 51°52' E 003°06'5 9.6
2018-Feb-16 11:59N 51°51' E 002°58'510.1
2018-Feb-16 11:29N 51°50' E 002°50'20 9.7
2018-Feb-16 09:29N 51°37' E 002°26'511.0
2018-Feb-16 09:00N 51°33' E 002°21'510.7
2018-Feb-16 08:30N 51°29' E 002°16'610.8
2018-Feb-16 08:00N 51°24' E 002°12'510.8
2018-Feb-16 07:30N 51°19' E 002°08'611.1
2018-Feb-16 07:00N 51°14' E 002°04'511.0
2018-Feb-16 06:30N 51°12' E 001°57'611.3
2018-Feb-16 06:00N 51°09' E 001°49'611.4
2018-Feb-16 05:30N 51°05' E 001°42'611.8
2018-Feb-16 05:00N 51°01' E 001°36'612.5
2018-Feb-16 04:30N 50°56' E 001°29'11112.8
2018-Feb-15 19:49N 50°06' W 001°07'715.9
2018-Feb-15 19:24N 50°05' W 001°17'615.9
2018-Feb-15 19:00N 50°04' W 001°26'815.5
2018-Feb-15 18:30N 50°02' W 001°38'714.9
2018-Feb-15 18:00N 50°00' W 001°49'714.2
2018-Feb-15 17:30N 49°59' W 002°00'713.2
2018-Feb-15 17:00N 49°57' W 002°10'612.5
2018-Feb-15 16:30N 49°56' W 002°20'612.0
2018-Feb-15 16:00N 49°54' W 002°28'611.6
2018-Feb-15 15:30N 49°53' W 002°37'611.4
2018-Feb-15 15:00N 49°51' W 002°46'611.0
2018-Feb-15 14:29N 49°49' W 002°54'510.9
2018-Feb-15 14:00N 49°46' W 003°01'510.8
2018-Feb-15 13:30N 49°44' W 003°08'17012.2
2018-Feb-14 23:31N 48°04' W 006°38'  
2018-Feb-11 12:52N 39°31' W 027°49'513.0
2018-Feb-11 12:29N 39°28' W 027°54'1012.9
2018-Feb-11 11:44N 39°23' W 028°05'312.5
2018-Feb-11 11:27N 39°21' W 028°08'612.6
2018-Feb-11 11:00N 39°18' W 028°14'612.6
2018-Feb-11 10:30N 39°14' W 028°21'613.0
2018-Feb-11 10:00N 39°11' W 028°28'613.0
2018-Feb-11 09:30N 39°07' W 028°35'612.6
2018-Feb-11 09:01N 39°03' W 028°42'612.3
2018-Feb-11 08:30N 38°60' W 028°48'612.9
2018-Feb-11 08:00N 38°56' W 028°55'612.9
2018-Feb-11 07:30N 38°52' W 029°02'713.2
2018-Feb-11 07:00N 38°49' W 029°09'713.1
2018-Feb-11 06:30N 38°45' W 029°16'613.0
2018-Feb-11 06:01N 38°42' W 029°23'713.3
2018-Feb-11 05:31N 38°38' W 029°30'713.1
2018-Feb-11 05:00N 38°34' W 029°36'713.1
2018-Feb-11 04:30N 38°30' W 029°43'713.2
2018-Feb-11 04:00N 38°26' W 029°50'713.3
2018-Feb-11 03:30N 38°22' W 029°57'713.1
2018-Feb-11 03:01N 38°18' W 030°03'713.1
2018-Feb-11 02:30N 38°14' W 030°10'713.0
2018-Feb-11 02:00N 38°11' W 030°17'612.9
2018-Feb-11 01:30N 38°07' W 030°23'713.0
2018-Feb-11 01:00N 38°03' W 030°30'  

Dump ship's entire track history